• Join FlightAware (Why Join?)
  • Login
  • US Flag 
01:04AM EDT


 

Airport Tracker/Info


-or-


 

Live Flight TrackerFlight Track Log ✈ BHR29 ✈ 11-Jun-2013 ✈ KAPA - KSHR

Flight Track Log - Related Links

Times and Time Zones

All times are in EDT time to prevent confusion due to time zone crossing. See the BHR29 flight status page for this flight to view local times or setup timezone preferences in your user account.

Time Position Orientation Groundspeed Altitude Reporting Facility
EDT Latitude Longitude Course Direction KTS MPH feet Rate Location/Type
11:02AM 39.5333 -104.8500 218° Southwest 153 176 6,900  Level Denver TRACON
11:03AM 39.5000 -104.8833 218° Southwest 172 198 7,600 600 Climbing Denver TRACON
11:04AM 39.5236 -104.9064 323° Northwest 193 222 7,900 900 Climbing Denver Center
11:05AM 39.5744 -104.9383 334° Northwest 190 219 9,200 1,260 Climbing Denver Center
11:06AM 39.6219 -104.9628 338° Northwest 186 214 10,600 1,200 Climbing Denver Center
11:07AM 39.6867 -104.9661 358° North 212 244 11,700 960 Climbing Denver Center
11:08AM 39.7478 -104.9669 359° North 218 251 12,600 840 Climbing Denver Center
11:09AM 39.8042 -104.9561 North 207 238 13,500 720 Climbing Denver Center
11:10AM 39.8669 -104.9519 North 207 238 14,200 840 Climbing Denver Center
11:11AM 39.9292 -104.9428 North 224 258 15,300 960 Climbing Denver Center
11:12AM 39.9958 -104.9336 North 222 255 16,200 720 Climbing Denver Center
11:13AM 40.0589 -104.9258 North 226 260 16,900 420 Climbing Denver Center
11:14AM 40.1256 -104.9178 North 237 273 17,100 600 Climbing Denver Center
11:15AM 40.2006 -104.9081 North 250 288 18,200 960 Climbing Denver Center
11:16AM 40.2706 -104.8997 North 251 289 19,200 960 Climbing Denver Center
11:17AM 40.3519 -104.8886 North 272 313 20,300 960 Climbing Denver Center
11:18AM 40.4275 -104.8789 North 272 313 21,300 960 Climbing Denver Center
11:19AM 40.5056 -104.8692 North 282 325 22,300 960 Climbing Denver Center
11:20AM 40.5878 -104.8589 North 276 318 23,300 960 Climbing Denver Center
11:21AM 40.6658 -104.8483 North 279 321 24,300 960 Climbing Denver Center
11:22AM 40.7444 -104.8356 North 276 318 25,300 780 Climbing Denver Center
11:23AM 40.8300 -104.8239 North 277 319 26,000 300 Climbing Denver Center
11:24AM 40.9036 -104.8581 341° North 295 339 26,000  Level Denver Center
11:25AM 40.9800 -104.8986 338° Northwest 306 352 26,000  Level Denver Center
11:26AM 41.0719 -104.9442 340° North 314 361 26,000  Level Denver Center
11:27AM 41.1519 -104.9864 338° Northwest 322 371 26,000  Level Denver Center
11:29AM 41.2450 -105.0347 339° North 320 368 26,000  Level Denver Center
11:30AM 41.3250 -105.0756 339° North 319 367 26,000  Level Denver Center
11:31AM 41.4161 -105.1225 339° North 316 364 26,000  Level Denver Center
11:32AM 41.4944 -105.1653 338° Northwest 317 365 26,000  Level Denver Center
11:33AM 41.5886 -105.2133 339° North 322 371 26,000  Level Denver Center
11:34AM 41.6678 -105.2553 338° Northwest 320 368 26,000  Level Denver Center
11:35AM 41.7544 -105.3011 338° Northwest 303 349 26,000  Level Denver Center
11:36AM 41.8294 -105.3408 338° Northwest 303 349 26,000  Level Denver Center
11:37AM 41.9217 -105.3906 338° Northwest 315 362 26,000  Level Denver Center
11:38AM 42.0008 -105.4319 339° North 319 367 26,000  Level Denver Center
11:39AM 42.0806 -105.4747 338° Northwest 321 369 26,000  Level Denver Center
11:40AM 42.1714 -105.5244 338° Northwest 315 362 26,000  Level Denver Center
11:41AM 42.2506 -105.5667 338° Northwest 317 365 26,000  Level Denver Center
11:42AM 42.3450 -105.6172 338° Northwest 322 371 26,000  Level Denver Center
11:43AM 42.4217 -105.6600 338° Northwest 317 365 26,000  Level Denver Center
11:44AM 42.5169 -105.7108 339° North 326 375 26,000 -120 Level Denver Center
11:45AM 42.5981 -105.7536 339° North 329 379 25,800 -360 Descending Denver Center
11:46AM 42.6944 -105.8061 338° Northwest 332 382 25,300 -540 Descending Denver Center
11:47AM 42.7750 -105.8494 338° Northwest 328 377 24,800 -540 Descending Denver Center
11:48AM 42.8525 -105.8919 338° Northwest 317 365 24,300 -540 Descending Denver Center
11:49AM 42.9433 -105.9428 338° Northwest 315 362 23,800 -540 Descending Denver Center
11:50AM 43.0233 -105.9853 339° North 320 368 23,300 -540 Descending Denver Center
11:51AM 43.1156 -106.0381 337° Northwest 321 369 22,700 -540 Descending Denver Center
11:52AM 43.1947 -106.0808 339° North 319 367 22,200 -360 Descending Denver Center
11:53AM 43.2861 -106.1319 338° Northwest 317 365 22,000 -120 Descending Denver Center
11:54AM 43.3619 -106.1728 339° North 310 357 22,000  Level Denver Center
11:55AM 43.4481 -106.2228 337° Northwest 302 348 22,000  Level Denver Center
11:56AM 43.5239 -106.2642 338° Northwest 304 350 22,000  Level Denver Center
11:57AM 43.6114 -106.3136 338° Northwest 306 352 22,000  Level Denver Center
11:58AM 43.6608 -106.3433 336° Northwest 303 349 22,000  Level Salt Lake Center
11:59AM 43.7364 -106.3847 338° Northwest 303 349 22,000  Level Salt Lake Center
12:00PM 43.7864 -106.4128 338° Northwest 303 349 22,000 -300 Level Denver Center
12:01PM 43.8617 -106.4572 337° Northwest 305 351 21,600 -480 Descending Denver Center
12:02PM 43.9533 -106.5081 338° Northwest 314 361 21,100 -720 Descending Denver Center
12:03PM 44.0319 -106.5514 338° Northwest 316 364 20,200 -1,020 Descending Denver Center
12:04PM 44.1183 -106.6008 338° Northwest 303 349 19,100 -1,020 Descending Denver Center
12:04PM 44.1519 -106.6211 337° Northwest 295 339 18,700 -1,020 Descending Salt Lake Center
12:05PM 44.2211 -106.6600 338° Northwest 283 326 17,600 -1,080 Descending Salt Lake Center
12:06PM 44.2978 -106.7042 338° Northwest 267 307 16,500 -900 Descending Salt Lake Center
12:07PM 44.3594 -106.7400 337° Northwest 253 291 15,800 -900 Descending Salt Lake Center
12:08PM 44.4186 -106.7744 337° Northwest 243 280 14,700 -1,380 Descending Salt Lake Center
12:09PM 44.4858 -106.8122 338° Northwest 233 268 13,000 -1,500 Descending Salt Lake Center
12:11PM 44.5400 -106.8397 340° North 220 253 11,600 -1,380 Descending Salt Lake Center
12:12PM 44.6000 -106.8575 348° North 206 237 10,200 -1,320 Descending Salt Lake Center
12:13PM 44.6478 -106.8769 344° North 196 226 8,900 -1,080 Descending Salt Lake Center
12:14PM 44.7011 -106.9011 342° North 194 223 8,000 -780 Descending Salt Lake Center
12:16PM 44.8008 -106.9636 336° Northwest 191 220 6,500 -540 Descending Salt Lake Center
12:17PM 44.8383 -106.9908 333° Northwest 157 181 6,500  Level Salt Lake Center
12:19PM 44.7667 -106.9667 170° South  Level FlightAware Approximate
12:26PM 44.7692 -106.9803 170° South  Level Estimated